createdAt,value
2023-02-08T00:00:48.660Z,40.33
2023-02-08T00:03:22.419Z,37.90
2023-02-08T00:05:54.209Z,40.93
2023-02-08T00:08:26.004Z,38.58
2023-02-08T00:10:58.065Z,38.38
2023-02-08T00:13:30.129Z,38.72
2023-02-08T00:16:04.014Z,38.30
2023-02-08T00:18:35.709Z,38.67
2023-02-08T00:21:15.990Z,38.15
2023-02-08T00:23:48.172Z,39.90
2023-02-08T00:26:20.042Z,38.53
2023-02-08T00:28:51.985Z,38.90
2023-02-08T00:31:23.813Z,37.65
2023-02-08T00:33:56.640Z,39.17
2023-02-08T00:36:30.557Z,38.30
2023-02-08T00:39:02.854Z,38.15
2023-02-08T00:41:34.563Z,40.47
2023-02-08T00:44:09.011Z,39.50
2023-02-08T00:46:40.714Z,35.97
2023-02-08T00:49:12.510Z,36.95
2023-02-08T00:51:44.175Z,38.97
2023-02-08T00:54:18.787Z,38.38
2023-02-08T00:56:50.472Z,39.47
2023-02-08T00:59:23.827Z,38.42
2023-02-08T01:01:55.538Z,37.78
2023-02-08T01:04:28.436Z,38.70
2023-02-08T01:07:00.125Z,38.33
2023-02-08T01:09:32.738Z,36.05
2023-02-08T01:12:06.457Z,38.03
2023-02-08T01:14:39.454Z,37.85
2023-02-08T01:17:11.202Z,36.90
2023-02-08T01:19:43.433Z,39.35
2023-02-08T01:22:15.155Z,36.75
2023-02-08T01:24:46.850Z,36.17
2023-02-08T01:27:18.523Z,36.28
2023-02-08T01:29:51.428Z,38.42
2023-02-08T01:32:24.979Z,36.70
2023-02-08T01:34:56.672Z,39.70
2023-02-08T01:37:28.347Z,38.42
2023-02-08T01:40:00.030Z,36.95
2023-02-08T01:42:31.688Z,37.72
2023-02-08T01:45:17.642Z,37.33
2023-02-08T01:47:55.136Z,37.10
2023-02-08T01:50:32.455Z,37.78
2023-02-08T01:53:06.191Z,36.22
2023-02-08T01:55:43.077Z,34.08
2023-02-08T01:58:19.396Z,35.70
2023-02-08T02:00:51.216Z,36.20
2023-02-08T02:03:24.923Z,36.13
2023-02-08T02:06:08.218Z,37.72
2023-02-08T02:08:49.522Z,38.03
2023-02-08T02:11:21.435Z,36.75
2023-02-08T02:13:56.367Z,36.90
2023-02-08T02:16:28.124Z,39.25
2023-02-08T02:18:59.792Z,37.13
2023-02-08T02:21:54.808Z,35.53
2023-02-08T02:24:48.212Z,38.30
2023-02-08T02:27:27.614Z,35.85
2023-02-08T02:30:24.533Z,38.22
2023-02-08T02:32:59.264Z,37.37
2023-02-08T02:35:54.506Z,39.10
2023-02-08T02:39:02.933Z,37.97
2023-02-08T02:42:21.419Z,37.00
2023-02-08T02:45:23.884Z,38.17
2023-02-08T02:48:03.502Z,38.65
2023-02-08T02:51:06.140Z,40.55
2023-02-08T02:53:45.045Z,40.72
2023-02-08T02:56:27.226Z,37.05
2023-02-08T02:59:06.462Z,37.95
2023-02-08T03:01:39.641Z,39.00
2023-02-08T03:04:15.702Z,38.53
2023-02-08T03:07:08.886Z,39.25
2023-02-08T03:10:04.860Z,37.38
2023-02-08T03:12:55.294Z,37.08
2023-02-08T03:15:48.336Z,37.70
2023-02-08T03:18:50.465Z,39.22
2023-02-08T03:21:45.880Z,39.08
2023-02-08T03:24:23.450Z,37.47
2023-02-08T03:27:01.440Z,38.05
2023-02-08T03:29:48.092Z,37.60
2023-02-08T03:32:27.146Z,37.75
2023-02-08T03:35:10.980Z,37.22
2023-02-08T03:37:48.208Z,37.38
2023-02-08T03:40:26.983Z,37.60
2023-02-08T03:43:03.519Z,37.72
2023-02-08T03:45:43.448Z,38.25
2023-02-08T03:48:18.446Z,38.25
2023-02-08T03:50:53.678Z,38.58
2023-02-08T03:53:27.568Z,38.13
2023-02-08T03:56:06.020Z,39.30
2023-02-08T03:59:03.901Z,39.38
2023-02-08T04:01:45.101Z,41.17
2023-02-08T04:04:20.905Z,37.05
2023-02-08T04:06:53.207Z,37.50
2023-02-08T04:09:24.913Z,40.40
2023-02-08T04:11:56.671Z,38.85
2023-02-08T04:14:28.353Z,40.50
2023-02-08T04:17:00.214Z,42.90
2023-02-08T04:19:32.258Z,41.80
2023-02-08T04:22:03.932Z,40.88
2023-02-08T04:24:35.548Z,40.97
2023-02-08T04:27:08.296Z,46.63
2023-02-08T04:29:43.987Z,40.78
2023-02-08T04:32:15.707Z,41.17
2023-02-08T04:34:47.441Z,40.95
2023-02-08T04:37:19.326Z,40.30
2023-02-08T04:39:51.367Z,39.58
2023-02-08T04:42:23.113Z,40.28
2023-02-08T04:44:54.792Z,39.80
2023-02-08T04:47:26.468Z,40.05
2023-02-08T04:49:58.211Z,38.65
2023-02-08T04:52:29.921Z,39.90
2023-02-08T04:55:01.585Z,37.25
2023-02-08T04:57:33.310Z,40.30
2023-02-08T05:00:05.619Z,39.70
2023-02-08T05:02:37.333Z,39.47
2023-02-08T05:05:09.072Z,39.85
2023-02-08T05:07:40.768Z,40.17
2023-02-08T05:10:12.663Z,40.05
2023-02-08T05:12:47.248Z,39.67
2023-02-08T05:15:18.932Z,40.95
2023-02-08T05:17:50.651Z,39.20
2023-02-08T05:20:22.366Z,43.10
2023-02-08T05:22:54.089Z,47.05
2023-02-08T05:25:25.922Z,50.08
2023-02-08T05:27:58.811Z,51.70
2023-02-08T05:30:31.476Z,50.22
2023-02-08T05:33:03.205Z,52.95
2023-02-08T05:35:34.858Z,52.58
2023-02-08T05:38:06.984Z,53.42
2023-02-08T05:40:39.011Z,52.72
2023-02-08T05:43:10.852Z,51.55
2023-02-08T05:45:42.541Z,52.35
2023-02-08T05:48:14.362Z,51.33
2023-02-08T05:50:46.109Z,46.42
2023-02-08T05:53:20.283Z,49.92
2023-02-08T05:55:52.132Z,49.05
2023-02-08T05:58:27.106Z,48.10
2023-02-08T06:00:58.850Z,50.05
2023-02-08T06:03:30.572Z,47.75
2023-02-08T06:06:02.282Z,48.10
2023-02-08T06:08:34.107Z,49.08
2023-02-08T06:11:06.392Z,47.35
2023-02-08T06:13:39.288Z,51.38
2023-02-08T06:16:12.699Z,51.22
2023-02-08T06:18:44.387Z,48.47
2023-02-08T06:21:16.076Z,50.60
2023-02-08T06:23:47.773Z,46.45
2023-02-08T06:26:19.500Z,45.90
2023-02-08T06:28:51.237Z,46.90
2023-02-08T06:31:23.014Z,51.30
2023-02-08T06:33:54.742Z,56.95
2023-02-08T06:36:26.452Z,58.40
2023-02-08T06:38:58.133Z,60.13
2023-02-08T06:41:29.798Z,55.83
2023-02-08T06:44:02.290Z,53.83
2023-02-08T06:46:33.999Z,52.53
2023-02-08T06:49:05.747Z,51.85
2023-02-08T06:51:37.464Z,55.33
2023-02-08T06:54:09.155Z,54.22
2023-02-08T06:56:40.913Z,53.58
2023-02-08T06:59:12.608Z,54.95
2023-02-08T07:01:44.252Z,53.38
2023-02-08T07:04:15.943Z,47.75
2023-02-08T07:06:50.751Z,47.42
2023-02-08T07:11:54.455Z,42.47
2023-02-08T07:14:26.161Z,42.40
2023-02-08T07:16:57.867Z,41.50
2023-02-08T07:19:29.844Z,42.55
2023-02-08T07:22:07.238Z,40.58
2023-02-08T07:24:41.415Z,40.40
2023-02-08T07:27:13.567Z,43.17
2023-02-08T07:29:45.229Z,39.55
2023-02-08T07:32:17.063Z,42.00
2023-02-08T07:34:48.761Z,39.47
2023-02-08T07:37:20.436Z,38.47
2023-02-08T07:39:52.097Z,38.65
2023-02-08T07:42:23.796Z,39.83
2023-02-08T07:45:08.148Z,40.78
2023-02-08T07:47:39.877Z,40.55
2023-02-08T07:50:11.614Z,42.17
2023-02-08T07:52:46.075Z,39.75
2023-02-08T07:55:18.036Z,38.35
2023-02-08T07:57:50.338Z,35.40
2023-02-08T08:00:22.050Z,34.83
2023-02-08T08:02:54.320Z,34.85
2023-02-08T08:05:26.056Z,35.22
2023-02-08T08:07:57.729Z,33.70
2023-02-08T08:10:29.412Z,33.15
2023-02-08T08:13:01.175Z,34.58
2023-02-08T08:15:33.297Z,32.47
2023-02-08T08:18:05.107Z,29.70
2023-02-08T08:20:39.685Z,30.30
2023-02-08T08:23:14.494Z,27.10
2023-02-08T08:28:17.955Z,29.67
2023-02-08T08:30:49.891Z,28.80
2023-02-08T08:33:21.641Z,27.95
2023-02-08T08:35:53.444Z,28.90
2023-02-08T08:38:25.303Z,28.10
2023-02-08T08:40:57.091Z,26.17
2023-02-08T08:43:28.817Z,26.60
2023-02-08T08:46:00.651Z,24.73
2023-02-08T08:48:33.914Z,25.35
2023-02-08T08:51:06.647Z,27.05
2023-02-08T08:53:38.848Z,25.27
2023-02-08T08:56:10.590Z,26.25
2023-02-08T08:58:43.473Z,25.13
2023-02-08T09:01:15.398Z,25.05
2023-02-08T09:03:48.343Z,26.42
2023-02-08T09:06:20.139Z,25.15
2023-02-08T09:08:51.952Z,24.65
2023-02-08T09:11:23.672Z,26.60
2023-02-08T09:13:56.331Z,24.13
2023-02-08T09:16:28.227Z,25.17
2023-02-08T09:19:04.686Z,24.13
2023-02-08T09:21:36.748Z,23.92
2023-02-08T09:24:08.899Z,22.23
2023-02-08T09:26:40.732Z,22.23
2023-02-08T09:29:12.448Z,21.02
2023-02-08T09:31:44.385Z,22.25
2023-02-08T09:34:16.228Z,21.45
2023-02-08T09:36:47.931Z,22.17
2023-02-08T09:39:22.815Z,21.23
2023-02-08T09:42:13.274Z,21.90
2023-02-08T09:44:47.956Z,21.35
2023-02-08T09:50:14.227Z,20.83
2023-02-08T09:52:54.960Z,19.77
2023-02-08T09:56:01.830Z,20.15
2023-02-08T09:58:40.304Z,21.15
2023-02-08T10:01:26.352Z,22.58
2023-02-08T10:04:09.010Z,20.40
2023-02-08T10:06:41.333Z,19.20
2023-02-08T10:09:16.350Z,18.33
2023-02-08T10:11:54.669Z,19.35
2023-02-08T10:14:56.034Z,18.83
2023-02-08T10:17:41.638Z,17.98
2023-02-08T10:20:25.318Z,16.02
2023-02-08T10:23:16.022Z,17.05
2023-02-08T10:26:14.435Z,16.25
2023-02-08T10:28:58.104Z,16.90
2023-02-08T10:31:44.019Z,17.50
2023-02-08T10:34:37.221Z,15.85
2023-02-08T10:37:29.427Z,17.60
2023-02-08T10:40:14.789Z,16.80
2023-02-08T10:42:52.659Z,16.50
2023-02-08T10:45:36.724Z,17.77
2023-02-08T10:48:15.939Z,17.02
2023-02-08T10:50:48.237Z,15.48
2023-02-08T10:53:20.581Z,15.60
2023-02-08T10:55:52.705Z,15.10
2023-02-08T10:58:28.324Z,14.90
2023-02-08T11:01:01.253Z,15.65
2023-02-08T11:03:34.242Z,16.83
2023-02-08T11:06:21.892Z,16.77
2023-02-08T11:08:58.812Z,17.35
2023-02-08T11:11:39.307Z,16.90
2023-02-08T11:14:45.506Z,17.15
2023-02-08T11:17:31.360Z,16.75
2023-02-08T11:20:06.267Z,17.92
2023-02-08T11:22:38.011Z,17.95
2023-02-08T11:25:35.932Z,17.05
2023-02-08T11:28:22.761Z,18.33
2023-02-08T11:31:02.876Z,17.60
2023-02-08T11:33:37.200Z,16.15
2023-02-08T11:36:13.554Z,16.48
2023-02-08T11:38:45.244Z,14.52
2023-02-08T11:41:20.475Z,16.88
2023-02-08T11:43:55.078Z,17.40
2023-02-08T11:46:29.426Z,18.58
2023-02-08T11:49:01.572Z,14.73
2023-02-08T11:51:36.360Z,16.35
2023-02-08T11:57:10.994Z,16.38
2023-02-08T11:59:42.719Z,16.02
2023-02-08T12:02:48.408Z,17.65
2023-02-08T12:05:29.528Z,16.77
2023-02-08T12:08:16.160Z,16.67
2023-02-08T12:10:54.842Z,17.45
2023-02-08T12:13:50.442Z,19.10
2023-02-08T12:19:39.373Z,16.00
2023-02-08T12:22:13.148Z,17.20
2023-02-08T12:25:06.305Z,18.02
2023-02-08T12:27:59.464Z,16.23
2023-02-08T12:30:40.639Z,15.98
2023-02-08T12:33:33.576Z,16.55
2023-02-08T12:36:05.733Z,16.15
2023-02-08T12:39:22.349Z,15.95
2023-02-08T12:42:12.502Z,16.25
2023-02-08T12:45:05.675Z,16.70
2023-02-08T12:48:04.683Z,12.75
2023-02-08T12:50:50.935Z,12.68
2023-02-08T12:53:35.911Z,12.50
2023-02-08T12:56:32.856Z,13.68
2023-02-08T12:59:13.467Z,12.88
2023-02-08T13:01:51.358Z,12.65
2023-02-08T13:04:33.096Z,13.60
2023-02-08T13:07:19.732Z,12.52
2023-02-08T13:10:29.488Z,12.88
2023-02-08T13:13:19.968Z,13.07
2023-02-08T13:16:30.121Z,11.32
2023-02-08T13:19:32.441Z,12.13
2023-02-08T13:22:05.748Z,11.30
2023-02-08T13:24:44.892Z,11.15
2023-02-08T13:27:19.400Z,12.35
2023-02-08T13:29:52.917Z,11.77
2023-02-08T13:32:44.307Z,12.82
2023-02-08T13:35:29.257Z,11.85
2023-02-08T13:38:20.893Z,13.73
2023-02-08T13:41:22.757Z,13.15
2023-02-08T13:43:57.399Z,12.93
2023-02-08T13:49:07.041Z,11.77
2023-02-08T13:51:53.181Z,12.07
2023-02-08T13:54:24.972Z,11.25
2023-02-08T13:56:57.439Z,11.52
2023-02-08T13:59:29.108Z,10.32
2023-02-08T14:02:12.972Z,14.48
2023-02-08T14:04:45.635Z,15.43
2023-02-08T14:07:32.920Z,16.45
2023-02-08T14:10:37.359Z,15.70
2023-02-08T14:13:31.135Z,16.17
2023-02-08T14:16:38.670Z,17.90
2023-02-08T14:19:16.174Z,15.40
2023-02-08T14:21:59.268Z,16.25
2023-02-08T14:24:43.729Z,16.83
2023-02-08T14:27:33.380Z,15.82
2023-02-08T14:30:07.780Z,15.70
2023-02-08T14:32:42.129Z,15.25
2023-02-08T14:35:13.822Z,15.70
2023-02-08T14:37:50.731Z,15.20
2023-02-08T14:40:32.927Z,14.82
2023-02-08T14:43:19.693Z,14.80
2023-02-08T14:45:55.786Z,16.48
2023-02-08T14:48:32.962Z,15.07
2023-02-08T14:51:10.708Z,15.13
2023-02-08T14:53:42.344Z,15.98
2023-02-08T14:56:29.744Z,15.77
2023-02-08T14:59:18.612Z,14.88
2023-02-08T15:01:54.359Z,16.67
2023-02-08T15:04:26.926Z,15.13
2023-02-08T15:07:07.566Z,15.65
2023-02-08T15:09:42.624Z,14.75
2023-02-08T15:12:34.317Z,14.23
2023-02-08T15:15:21.289Z,10.43
2023-02-08T15:17:54.886Z,9.52
2023-02-08T15:20:33.069Z,9.35
2023-02-08T15:23:23.892Z,9.63
2023-02-08T15:25:58.346Z,8.45
2023-02-08T15:28:34.058Z,8.10
2023-02-08T15:31:09.908Z,8.43
2023-02-08T15:33:44.719Z,8.80
2023-02-08T15:36:27.897Z,8.38
2023-02-08T15:39:03.772Z,9.30
2023-02-08T15:41:38.596Z,11.57
2023-02-08T15:44:18.582Z,9.18
2023-02-08T15:46:55.614Z,8.75
2023-02-08T15:49:50.707Z,9.65
2023-02-08T15:52:25.862Z,8.05
2023-02-08T15:54:57.699Z,8.98
2023-02-08T15:57:47.048Z,9.00
2023-02-08T16:00:28.606Z,9.10
2023-02-08T16:03:06.835Z,8.50
2023-02-08T16:05:41.567Z,8.75
2023-02-08T16:08:21.628Z,8.85
2023-02-08T16:10:57.501Z,10.20
2023-02-08T16:13:34.182Z,10.88
2023-02-08T16:16:44.883Z,10.07
2023-02-08T16:19:25.689Z,10.18
2023-02-08T16:22:25.906Z,10.23
2023-02-08T16:25:23.973Z,9.57
2023-02-08T16:27:55.748Z,11.60
2023-02-08T16:30:29.736Z,9.57
2023-02-08T16:33:08.793Z,10.07
2023-02-08T16:35:40.706Z,10.15
2023-02-08T16:38:21.443Z,9.40
2023-02-08T16:40:59.277Z,9.77
2023-02-08T16:43:32.765Z,8.63
2023-02-08T16:46:10.727Z,9.13
2023-02-08T16:48:50.419Z,10.75
2023-02-08T16:51:28.773Z,10.07
2023-02-08T16:54:11.398Z,10.80
2023-02-08T16:56:44.120Z,9.90
2023-02-08T16:59:16.843Z,10.90
2023-02-08T17:01:50.119Z,11.18
2023-02-08T17:04:22.225Z,11.10
2023-02-08T17:06:54.420Z,11.05
2023-02-08T17:09:26.118Z,10.38
2023-02-08T17:11:57.843Z,11.77
2023-02-08T17:14:29.512Z,12.30
2023-02-08T17:17:01.296Z,11.77
2023-02-08T17:19:32.980Z,11.68
2023-02-08T17:22:04.688Z,11.15
2023-02-08T17:24:38.873Z,11.13
2023-02-08T17:27:14.547Z,11.77
2023-02-08T17:29:46.300Z,12.20
2023-02-08T17:32:17.987Z,11.43
2023-02-08T17:34:49.648Z,11.52
2023-02-08T17:37:22.056Z,11.25
2023-02-08T17:39:53.735Z,11.73
2023-02-08T17:42:25.440Z,11.27
2023-02-08T17:44:57.114Z,11.60
2023-02-08T17:47:28.835Z,12.00
2023-02-08T17:50:02.409Z,11.35
2023-02-08T17:52:34.127Z,11.50
2023-02-08T17:55:07.346Z,12.07
2023-02-08T17:57:40.924Z,12.07
2023-02-08T18:00:18.810Z,11.93
2023-02-08T18:02:55.148Z,11.27
2023-02-08T18:05:28.504Z,11.68
2023-02-08T18:08:00.443Z,11.95
2023-02-08T18:10:32.134Z,12.07
2023-02-08T18:13:03.839Z,11.77
2023-02-08T18:15:35.510Z,11.63
2023-02-08T18:18:07.218Z,11.13
2023-02-08T18:20:43.885Z,11.50
2023-02-08T18:23:15.666Z,11.48
2023-02-08T18:25:48.658Z,10.02
2023-02-08T18:28:20.387Z,11.32
2023-02-08T18:30:52.132Z,10.20
2023-02-08T18:33:23.939Z,10.55
2023-02-08T18:35:55.609Z,10.65
2023-02-08T18:38:27.709Z,10.13
2023-02-08T18:40:59.398Z,10.93
2023-02-08T18:43:31.096Z,10.75
2023-02-08T18:46:05.580Z,9.68
2023-02-08T18:48:41.282Z,10.43
2023-02-08T18:51:14.626Z,9.65
2023-02-08T18:53:50.981Z,9.63
2023-02-08T18:56:25.238Z,10.45
2023-02-08T18:58:59.907Z,10.85
2023-02-08T19:01:31.677Z,10.18
2023-02-08T19:04:04.430Z,9.63
2023-02-08T19:06:37.548Z,10.55
2023-02-08T19:09:09.507Z,9.93
2023-02-08T19:11:41.510Z,11.18
2023-02-08T19:14:17.267Z,10.25
2023-02-08T19:16:49.475Z,10.57
2023-02-08T19:19:21.460Z,10.82
2023-02-08T19:21:56.160Z,10.15
2023-02-08T19:24:27.955Z,10.38
2023-02-08T19:27:00.095Z,11.50
2023-02-08T19:29:33.565Z,10.60
2023-02-08T19:32:07.654Z,14.73
2023-02-08T19:34:39.465Z,8.32
2023-02-08T19:37:11.162Z,10.73
2023-02-08T19:39:42.955Z,11.25
2023-02-08T19:42:14.641Z,12.05
2023-02-08T19:44:46.369Z,10.68
2023-02-08T19:47:18.541Z,10.85
2023-02-08T19:49:50.249Z,9.43
2023-02-08T19:52:24.567Z,11.20
2023-02-08T19:54:56.276Z,10.40
2023-02-08T19:57:27.945Z,9.95
2023-02-08T20:00:00.750Z,11.38
2023-02-08T20:02:43.796Z,10.93
2023-02-08T20:05:15.540Z,11.50
2023-02-08T20:07:47.225Z,11.80
2023-02-08T20:10:18.980Z,12.23
2023-02-08T20:12:50.665Z,12.02
2023-02-08T20:15:22.355Z,11.05
2023-02-08T20:17:54.025Z,11.90
2023-02-08T20:20:27.186Z,10.95
2023-02-08T20:22:58.957Z,10.73
2023-02-08T20:25:30.835Z,11.18
2023-02-08T20:28:02.628Z,11.25
2023-02-08T20:30:40.904Z,10.52
2023-02-08T20:33:14.768Z,10.25
2023-02-08T20:35:47.362Z,11.85
2023-02-08T20:38:19.084Z,11.25
2023-02-08T20:40:50.774Z,12.27
2023-02-08T20:43:22.405Z,10.02
2023-02-08T20:45:54.142Z,10.45
2023-02-08T20:48:26.026Z,10.32
2023-02-08T20:51:08.203Z,10.80
2023-02-08T20:53:41.303Z,10.35
2023-02-08T20:56:28.075Z,10.73
2023-02-08T20:59:08.647Z,10.98
2023-02-08T21:01:40.463Z,13.10
2023-02-08T21:04:13.253Z,10.48
2023-02-08T21:06:46.294Z,10.00
2023-02-08T21:09:19.680Z,10.35
2023-02-08T21:11:52.179Z,10.40
2023-02-08T21:14:24.211Z,9.90
2023-02-08T21:16:58.654Z,9.88
2023-02-08T21:19:30.737Z,9.75
2023-02-08T21:22:03.013Z,10.77
2023-02-08T21:24:34.699Z,9.90
2023-02-08T21:27:06.720Z,9.90
2023-02-08T21:29:38.761Z,11.13
2023-02-08T21:32:10.663Z,11.02
2023-02-08T21:34:42.409Z,9.77
2023-02-08T21:37:14.138Z,11.05
2023-02-08T21:39:47.318Z,10.48
2023-02-08T21:42:19.143Z,10.45
2023-02-08T21:44:50.824Z,10.98
2023-02-08T21:47:22.528Z,10.80
2023-02-08T21:50:12.782Z,11.75
2023-02-08T21:53:03.010Z,10.60
2023-02-08T21:55:34.783Z,11.57
2023-02-08T21:58:06.451Z,11.05
2023-02-08T22:00:38.160Z,11.15
2023-02-08T22:03:09.864Z,11.35
2023-02-08T22:06:00.010Z,10.52
2023-02-08T22:08:32.965Z,10.38
2023-02-08T22:11:05.142Z,11.45
2023-02-08T22:13:37.084Z,11.45
2023-02-08T22:16:09.407Z,12.07
2023-02-08T22:18:41.551Z,11.15
2023-02-08T22:21:16.210Z,11.35
2023-02-08T22:23:47.936Z,11.38
2023-02-08T22:26:19.619Z,11.30
2023-02-08T22:28:51.376Z,10.88
2023-02-08T22:31:23.198Z,10.60
2023-02-08T22:33:55.310Z,11.07
2023-02-08T22:36:28.092Z,12.18
2023-02-08T22:38:59.820Z,10.50
2023-02-08T22:41:31.573Z,10.75
2023-02-08T22:44:03.355Z,10.68
2023-02-08T22:46:35.038Z,10.13
2023-02-08T22:49:08.654Z,11.23
2023-02-08T22:51:40.489Z,11.68
2023-02-08T22:54:12.253Z,9.77
2023-02-08T22:56:43.928Z,10.55
2023-02-08T22:59:15.656Z,11.20
2023-02-08T23:01:47.428Z,11.23
2023-02-08T23:04:19.218Z,11.02
2023-02-08T23:06:51.322Z,10.60
2023-02-08T23:09:23.541Z,10.65
2023-02-08T23:11:55.347Z,10.75
2023-02-08T23:14:27.436Z,10.43
2023-02-08T23:16:59.107Z,10.48
2023-02-08T23:29:31.058Z,11.68
2023-02-08T23:32:04.202Z,11.95
2023-02-08T23:34:39.925Z,10.95
2023-02-08T23:37:37.019Z,12.25
2023-02-08T23:40:10.994Z,11.90
2023-02-08T23:42:42.707Z,12.88
2023-02-08T23:45:14.580Z,12.05
2023-02-08T23:47:46.290Z,12.75
2023-02-08T23:50:18.094Z,12.90
2023-02-08T23:52:49.861Z,12.75
2023-02-08T23:55:21.876Z,14.00
2023-02-08T23:57:53.534Z,12.50
